TVS1DE LKPR-LDSP
Flight info
| Callsign | TVS1DE |
|---|---|
| Flight time | 1h 12m |
| Altitude | 35000 |
| Route | VOZ DCT PISAM DCT PETOV DCT NIVES DCT NUPSO |
| Aircraft | A320/M-SDE2E3FGIJ1RWXYZ/LB1 |
Departure
| Time | 2026-05-07 19:14 |
|---|---|
| Airport | Václav Havel Airport Prague (LKPR) |
Arrival
| Time | 2026-05-07 20:26 |
|---|---|
| Airport | Split Saint Jerome Airport (LDSP) |
| Time | Latitude | Longitude | Altitude | Speed | Heading |
|---|---|---|---|---|---|
| 2026-05-07 18:40 | 50.10461 | 14.26533 | 1174 ft | 0 kts | 34° |
| 2026-05-07 19:05 | 50.10450 | 14.26521 | 1174 ft | 4 kts | 32° |
| 2026-05-07 19:05 | 50.10428 | 14.26504 | 1174 ft | 4 kts | 352° |
| 2026-05-07 19:06 | 50.10419 | 14.26510 | 1174 ft | 0 kts | 304° |
| 2026-05-07 19:08 | 50.10420 | 14.26505 | 1172 ft | 4 kts | 304° |
| 2026-05-07 19:08 | 50.10463 | 14.26409 | 1171 ft | 14 kts | 304° |
| 2026-05-07 19:09 | 50.10522 | 14.26276 | 1173 ft | 14 kts | 303° |
| 2026-05-07 19:09 | 50.10553 | 14.26158 | 1171 ft | 11 kts | 300° |
| 2026-05-07 19:09 | 50.10583 | 14.26046 | 1172 ft | 11 kts | 257° |
| 2026-05-07 19:09 | 50.10522 | 14.25976 | 1173 ft | 9 kts | 187° |
| 2026-05-07 19:10 | 50.10457 | 14.26064 | 1176 ft | 22 kts | 127° |
| 2026-05-07 19:10 | 50.10351 | 14.26283 | 1176 ft | 25 kts | 127° |
| 2026-05-07 19:10 | 50.10249 | 14.26493 | 1177 ft | 24 kts | 127° |
| 2026-05-07 19:10 | 50.10138 | 14.26724 | 1184 ft | 28 kts | 127° |
| 2026-05-07 19:11 | 50.10028 | 14.26948 | 1194 ft | 25 kts | 127° |
| 2026-05-07 19:11 | 50.09921 | 14.27172 | 1201 ft | 28 kts | 126° |
| 2026-05-07 19:11 | 50.09844 | 14.27324 | 1203 ft | 26 kts | 136° |
| 2026-05-07 19:11 | 50.09719 | 14.27518 | 1206 ft | 25 kts | 135° |
| 2026-05-07 19:12 | 50.09605 | 14.27695 | 1211 ft | 22 kts | 135° |
| 2026-05-07 19:12 | 50.09498 | 14.27857 | 1214 ft | 23 kts | 136° |
| 2026-05-07 19:12 | 50.09377 | 14.28041 | 1215 ft | 25 kts | 135° |
| 2026-05-07 19:12 | 50.09258 | 14.28224 | 1213 ft | 22 kts | 135° |
| 2026-05-07 19:13 | 50.09128 | 14.28238 | 1211 ft | 21 kts | 227° |
| 2026-05-07 19:13 | 50.09082 | 14.28090 | 1208 ft | 13 kts | 303° |
| 2026-05-07 19:13 | 50.09145 | 14.27960 | 1211 ft | 29 kts | 306° |
| 2026-05-07 19:13 | 50.09422 | 14.27388 | 1210 ft | 100 kts | 307° |
| 2026-05-07 19:14 | 50.09962 | 14.26272 | 1198 ft | 156 kts | 307° |
| 2026-05-07 19:14 | 50.10652 | 14.24833 | 1663 ft | 164 kts | 307° |
| 2026-05-07 19:14 | 50.11324 | 14.23414 | 2378 ft | 163 kts | 307° |
| 2026-05-07 19:14 | 50.12000 | 14.22011 | 2996 ft | 163 kts | 307° |
| 2026-05-07 19:15 | 50.12721 | 14.20514 | 3350 ft | 184 kts | 306° |
| 2026-05-07 19:15 | 50.13537 | 14.18824 | 3620 ft | 208 kts | 306° |
| 2026-05-07 19:15 | 50.14456 | 14.16927 | 3924 ft | 231 kts | 306° |
| 2026-05-07 19:15 | 50.15477 | 14.14818 | 4359 ft | 254 kts | 306° |
| 2026-05-07 19:16 | 50.16561 | 14.12576 | 5146 ft | 262 kts | 306° |
| 2026-05-07 19:16 | 50.17573 | 14.10188 | 6004 ft | 266 kts | 293° |
| 2026-05-07 19:16 | 50.17952 | 14.07363 | 6854 ft | 270 kts | 268° |
| 2026-05-07 19:16 | 50.17500 | 14.04515 | 7705 ft | 275 kts | 242° |
| 2026-05-07 19:17 | 50.16261 | 14.02244 | 8519 ft | 280 kts | 216° |
| 2026-05-07 19:17 | 50.14467 | 14.01062 | 9328 ft | 285 kts | 189° |
| 2026-05-07 19:17 | 50.12485 | 14.01285 | 10122 ft | 291 kts | 162° |
| 2026-05-07 19:17 | 50.10747 | 14.02927 | 10822 ft | 301 kts | 139° |
| 2026-05-07 19:18 | 50.09149 | 14.05230 | 11077 ft | 325 kts | 137° |
| 2026-05-07 19:18 | 50.07480 | 14.07740 | 11531 ft | 339 kts | 136° |
| 2026-05-07 19:18 | 50.05781 | 14.10329 | 12220 ft | 344 kts | 136° |
| 2026-05-07 19:18 | 50.04057 | 14.12948 | 12953 ft | 348 kts | 137° |
| 2026-05-07 19:19 | 50.02310 | 14.15584 | 13652 ft | 351 kts | 137° |
| 2026-05-07 19:19 | 50.00542 | 14.18230 | 14346 ft | 355 kts | 137° |
| 2026-05-07 19:19 | 49.98753 | 14.20892 | 15031 ft | 358 kts | 138° |
| 2026-05-07 19:19 | 49.96942 | 14.23579 | 15701 ft | 361 kts | 138° |
| 2026-05-07 19:20 | 49.95118 | 14.26275 | 16344 ft | 364 kts | 138° |
| 2026-05-07 19:20 | 49.93272 | 14.28998 | 16968 ft | 367 kts | 138° |
| 2026-05-07 19:20 | 49.91414 | 14.31735 | 17585 ft | 370 kts | 139° |
| 2026-05-07 19:20 | 49.89540 | 14.34495 | 18187 ft | 373 kts | 138° |
| 2026-05-07 19:21 | 49.87650 | 14.37279 | 18780 ft | 376 kts | 139° |
| 2026-05-07 19:21 | 49.85746 | 14.40081 | 19364 ft | 379 kts | 139° |
| 2026-05-07 19:21 | 49.83825 | 14.42908 | 19941 ft | 382 kts | 139° |
| 2026-05-07 19:21 | 49.81893 | 14.45751 | 20513 ft | 385 kts | 139° |
| 2026-05-07 19:22 | 49.79946 | 14.48612 | 21081 ft | 387 kts | 139° |
| 2026-05-07 19:22 | 49.77984 | 14.51490 | 21627 ft | 390 kts | 139° |
| 2026-05-07 19:22 | 49.76009 | 14.54384 | 22162 ft | 393 kts | 139° |
| 2026-05-07 19:22 | 49.74028 | 14.57279 | 22690 ft | 395 kts | 139° |
| 2026-05-07 19:23 | 49.72012 | 14.60219 | 23198 ft | 398 kts | 139° |
| 2026-05-07 19:23 | 49.69991 | 14.63161 | 23681 ft | 400 kts | 139° |
| 2026-05-07 19:23 | 49.67960 | 14.66112 | 24146 ft | 402 kts | 139° |
| 2026-05-07 19:23 | 49.65916 | 14.69082 | 24597 ft | 405 kts | 139° |
| 2026-05-07 19:24 | 49.63860 | 14.72070 | 25030 ft | 407 kts | 139° |
| 2026-05-07 19:24 | 49.61791 | 14.75076 | 25453 ft | 410 kts | 139° |
| 2026-05-07 19:24 | 49.59711 | 14.78094 | 25868 ft | 412 kts | 139° |
| 2026-05-07 19:24 | 49.57618 | 14.81121 | 26266 ft | 414 kts | 139° |
| 2026-05-07 19:25 | 49.55514 | 14.84164 | 26645 ft | 416 kts | 139° |
| 2026-05-07 19:25 | 49.53319 | 14.87076 | 27013 ft | 416 kts | 146° |
| 2026-05-07 19:25 | 49.50865 | 14.89417 | 27384 ft | 415 kts | 154° |
| 2026-05-07 19:25 | 49.48299 | 14.91487 | 27728 ft | 417 kts | 154° |
| 2026-05-07 19:26 | 49.45721 | 14.93564 | 28090 ft | 419 kts | 154° |
| 2026-05-07 19:26 | 49.43133 | 14.95651 | 28431 ft | 421 kts | 154° |
| 2026-05-07 19:26 | 49.40536 | 14.97751 | 28754 ft | 423 kts | 154° |
| 2026-05-07 19:26 | 49.37928 | 14.99864 | 29079 ft | 425 kts | 154° |
| 2026-05-07 19:27 | 49.35310 | 15.01984 | 29387 ft | 426 kts | 154° |
| 2026-05-07 19:27 | 49.32682 | 15.04104 | 29701 ft | 428 kts | 154° |
| 2026-05-07 19:27 | 49.30043 | 15.06223 | 29988 ft | 429 kts | 155° |
| 2026-05-07 19:27 | 49.27394 | 15.08346 | 30261 ft | 430 kts | 155° |
| 2026-05-07 19:28 | 49.24735 | 15.10476 | 30515 ft | 433 kts | 155° |
| 2026-05-07 19:28 | 49.22063 | 15.12620 | 30759 ft | 435 kts | 154° |
| 2026-05-07 19:28 | 49.19376 | 15.14777 | 30994 ft | 437 kts | 154° |
| 2026-05-07 19:28 | 49.16681 | 15.16939 | 31218 ft | 439 kts | 155° |
| 2026-05-07 19:29 | 49.13974 | 15.19105 | 31455 ft | 440 kts | 155° |
| 2026-05-07 19:29 | 49.11262 | 15.21271 | 31756 ft | 439 kts | 155° |
| 2026-05-07 19:29 | 49.08556 | 15.23427 | 32053 ft | 439 kts | 155° |
| 2026-05-07 19:29 | 49.05845 | 15.25578 | 32340 ft | 439 kts | 155° |
| 2026-05-07 19:30 | 49.03140 | 15.27724 | 32638 ft | 439 kts | 155° |
| 2026-05-07 19:30 | 49.00434 | 15.29874 | 32916 ft | 439 kts | 155° |
| 2026-05-07 19:30 | 48.97731 | 15.32027 | 33186 ft | 439 kts | 155° |
| 2026-05-07 19:30 | 48.95023 | 15.34179 | 33462 ft | 439 kts | 155° |
| 2026-05-07 19:31 | 48.92319 | 15.36321 | 33739 ft | 438 kts | 155° |
| 2026-05-07 19:31 | 48.89540 | 15.38185 | 34003 ft | 436 kts | 163° |
| 2026-05-07 19:31 | 48.86618 | 15.39349 | 34269 ft | 433 kts | 172° |
| 2026-05-07 19:31 | 48.83643 | 15.40041 | 34521 ft | 433 kts | 173° |
| 2026-05-07 19:32 | 48.80666 | 15.40739 | 34766 ft | 433 kts | 173° |
| 2026-05-07 19:32 | 48.77683 | 15.41452 | 34964 ft | 434 kts | 173° |
| 2026-05-07 19:32 | 48.71759 | 15.42891 | 35017 ft | 429 kts | 173° |
| 2026-05-07 19:33 | 48.65875 | 15.44294 | 35025 ft | 428 kts | 173° |
| 2026-05-07 19:33 | 48.59997 | 15.45684 | 35026 ft | 427 kts | 173° |
| 2026-05-07 19:34 | 48.54124 | 15.47083 | 35026 ft | 427 kts | 173° |
| 2026-05-07 19:34 | 48.48252 | 15.48475 | 35024 ft | 427 kts | 173° |
| 2026-05-07 19:35 | 48.42374 | 15.49854 | 35023 ft | 427 kts | 173° |
| 2026-05-07 19:35 | 48.36503 | 15.51233 | 35020 ft | 427 kts | 173° |
| 2026-05-07 19:36 | 48.30636 | 15.52614 | 35020 ft | 427 kts | 173° |
| 2026-05-07 19:36 | 48.24771 | 15.53986 | 35019 ft | 426 kts | 173° |
| 2026-05-07 19:37 | 48.18906 | 15.55358 | 35021 ft | 426 kts | 173° |
| 2026-05-07 19:37 | 48.13043 | 15.56726 | 35016 ft | 426 kts | 174° |
| 2026-05-07 19:38 | 48.07182 | 15.58086 | 35020 ft | 426 kts | 174° |
| 2026-05-07 19:38 | 48.01320 | 15.59442 | 35024 ft | 426 kts | 174° |
| 2026-05-07 19:39 | 47.95455 | 15.60787 | 35025 ft | 426 kts | 174° |
| 2026-05-07 19:39 | 47.89590 | 15.62142 | 35026 ft | 426 kts | 174° |
| 2026-05-07 19:40 | 47.83728 | 15.63497 | 35029 ft | 426 kts | 174° |
| 2026-05-07 19:40 | 47.77867 | 15.64844 | 35031 ft | 426 kts | 174° |
| 2026-05-07 19:41 | 47.71996 | 15.66184 | 35031 ft | 427 kts | 174° |
| 2026-05-07 19:41 | 47.66125 | 15.67529 | 35032 ft | 427 kts | 174° |
| 2026-05-07 19:42 | 47.60256 | 15.68867 | 35034 ft | 427 kts | 174° |
| 2026-05-07 19:42 | 47.54382 | 15.70197 | 35037 ft | 427 kts | 174° |
| 2026-05-07 19:43 | 47.48512 | 15.71534 | 35040 ft | 427 kts | 174° |
| 2026-05-07 19:43 | 47.42639 | 15.72876 | 35035 ft | 427 kts | 174° |
| 2026-05-07 19:44 | 47.36758 | 15.74206 | 35036 ft | 427 kts | 174° |
| 2026-05-07 19:44 | 47.30879 | 15.75525 | 35039 ft | 428 kts | 174° |
| 2026-05-07 19:45 | 47.25029 | 15.76838 | 35041 ft | 428 kts | 174° |
| 2026-05-07 19:45 | 47.19144 | 15.78162 | 35042 ft | 428 kts | 174° |
| 2026-05-07 19:46 | 47.13259 | 15.79485 | 35041 ft | 428 kts | 174° |
| 2026-05-07 19:46 | 47.07366 | 15.80797 | 35041 ft | 428 kts | 174° |
| 2026-05-07 19:47 | 47.01473 | 15.82114 | 35041 ft | 429 kts | 174° |
| 2026-05-07 19:47 | 46.95574 | 15.83435 | 35041 ft | 429 kts | 174° |
| 2026-05-07 19:48 | 46.89666 | 15.84739 | 35041 ft | 429 kts | 174° |
| 2026-05-07 19:48 | 46.83757 | 15.86035 | 35039 ft | 429 kts | 174° |
| 2026-05-07 19:49 | 46.77848 | 15.87342 | 35042 ft | 430 kts | 174° |
| 2026-05-07 19:49 | 46.71938 | 15.88657 | 35040 ft | 430 kts | 174° |
| 2026-05-07 19:50 | 46.66029 | 15.89965 | 35041 ft | 429 kts | 174° |
| 2026-05-07 19:50 | 46.60120 | 15.91257 | 35042 ft | 430 kts | 175° |
| 2026-05-07 19:51 | 46.54202 | 15.92545 | 35041 ft | 430 kts | 175° |
| 2026-05-07 19:51 | 46.48283 | 15.93837 | 35042 ft | 430 kts | 175° |
| 2026-05-07 19:52 | 46.42363 | 15.95132 | 35043 ft | 430 kts | 175° |
| 2026-05-07 19:52 | 46.36439 | 15.96427 | 35041 ft | 431 kts | 175° |
| 2026-05-07 19:53 | 46.30509 | 15.97521 | 35040 ft | 427 kts | 182° |
| 2026-05-07 19:53 | 46.24588 | 15.97216 | 35036 ft | 425 kts | 186° |
| 2026-05-07 19:54 | 46.19636 | 15.96895 | 35032 ft | 425 kts | 186° |
| 2026-05-07 19:54 | 46.13729 | 15.96507 | 35030 ft | 425 kts | 186° |
| 2026-05-07 19:55 | 46.07815 | 15.96127 | 35025 ft | 425 kts | 186° |
| 2026-05-07 19:55 | 46.01906 | 15.95751 | 35023 ft | 425 kts | 186° |
| 2026-05-07 19:56 | 45.95989 | 15.95374 | 35024 ft | 425 kts | 186° |
| 2026-05-07 19:56 | 45.90078 | 15.94994 | 35023 ft | 425 kts | 186° |
| 2026-05-07 19:57 | 45.84169 | 15.94619 | 35021 ft | 425 kts | 186° |
| 2026-05-07 19:57 | 45.78262 | 15.94243 | 35017 ft | 425 kts | 186° |
| 2026-05-07 19:58 | 45.72349 | 15.93865 | 35016 ft | 425 kts | 186° |
| 2026-05-07 19:58 | 45.66437 | 15.93489 | 35013 ft | 426 kts | 185° |
| 2026-05-07 19:59 | 45.60519 | 15.93128 | 35013 ft | 426 kts | 185° |
| 2026-05-07 19:59 | 45.54597 | 15.92755 | 35014 ft | 426 kts | 186° |
| 2026-05-07 20:00 | 45.48676 | 15.92377 | 35017 ft | 426 kts | 186° |
| 2026-05-07 20:00 | 45.42752 | 15.92005 | 35021 ft | 426 kts | 186° |
| 2026-05-07 20:01 | 45.36866 | 15.91646 | 35023 ft | 427 kts | 186° |
| 2026-05-07 20:01 | 45.30939 | 15.91274 | 35025 ft | 426 kts | 186° |
| 2026-05-07 20:02 | 45.25007 | 15.90906 | 35025 ft | 427 kts | 186° |
| 2026-05-07 20:02 | 45.19024 | 15.90547 | 34909 ft | 429 kts | 185° |
| 2026-05-07 20:03 | 45.16046 | 15.90390 | 34660 ft | 429 kts | 185° |
| 2026-05-07 20:03 | 45.13063 | 15.90245 | 34407 ft | 428 kts | 185° |
| 2026-05-07 20:03 | 45.10087 | 15.90104 | 34157 ft | 429 kts | 185° |
| 2026-05-07 20:03 | 45.07111 | 15.89959 | 33798 ft | 426 kts | 185° |
| 2026-05-07 20:04 | 45.04162 | 15.89811 | 33244 ft | 422 kts | 185° |
| 2026-05-07 20:04 | 45.01242 | 15.89660 | 32697 ft | 419 kts | 185° |
| 2026-05-07 20:04 | 44.98341 | 15.89510 | 32148 ft | 416 kts | 185° |
| 2026-05-07 20:04 | 44.95461 | 15.89362 | 31607 ft | 412 kts | 185° |
| 2026-05-07 20:05 | 44.92604 | 15.89218 | 31077 ft | 410 kts | 185° |
| 2026-05-07 20:05 | 44.89767 | 15.89077 | 30556 ft | 407 kts | 185° |
| 2026-05-07 20:05 | 44.86950 | 15.88933 | 30044 ft | 404 kts | 185° |
| 2026-05-07 20:05 | 44.84149 | 15.88788 | 29531 ft | 401 kts | 185° |
| 2026-05-07 20:06 | 44.81372 | 15.88647 | 29022 ft | 398 kts | 185° |
| 2026-05-07 20:06 | 44.78612 | 15.88507 | 28514 ft | 395 kts | 185° |
| 2026-05-07 20:06 | 44.75874 | 15.88365 | 28033 ft | 393 kts | 185° |
| 2026-05-07 20:06 | 44.73155 | 15.88227 | 27563 ft | 389 kts | 185° |
| 2026-05-07 20:07 | 44.70465 | 15.88091 | 27090 ft | 385 kts | 185° |
| 2026-05-07 20:07 | 44.67797 | 15.87956 | 26636 ft | 382 kts | 185° |
| 2026-05-07 20:07 | 44.65157 | 15.87822 | 26189 ft | 378 kts | 185° |
| 2026-05-07 20:07 | 44.62536 | 15.87688 | 25743 ft | 375 kts | 185° |
| 2026-05-07 20:08 | 44.59947 | 15.87557 | 25303 ft | 371 kts | 185° |
| 2026-05-07 20:08 | 44.57373 | 15.87428 | 24875 ft | 368 kts | 185° |
| 2026-05-07 20:08 | 44.54822 | 15.87300 | 24432 ft | 366 kts | 185° |
| 2026-05-07 20:08 | 44.52289 | 15.87178 | 23989 ft | 363 kts | 185° |
| 2026-05-07 20:09 | 44.49780 | 15.87055 | 23529 ft | 360 kts | 185° |
| 2026-05-07 20:09 | 44.47301 | 15.87068 | 23332 ft | 350 kts | 181° |
| 2026-05-07 20:09 | 44.44909 | 15.87213 | 23226 ft | 338 kts | 181° |
| 2026-05-07 20:10 | 44.40047 | 15.87596 | 23072 ft | 361 kts | 180° |
| 2026-05-07 20:10 | 44.37526 | 15.87804 | 23011 ft | 364 kts | 180° |
| 2026-05-07 20:10 | 44.34997 | 15.88008 | 22457 ft | 364 kts | 180° |
| 2026-05-07 20:10 | 44.32506 | 15.88202 | 21998 ft | 362 kts | 180° |
| 2026-05-07 20:11 | 44.29997 | 15.88392 | 21534 ft | 360 kts | 180° |
| 2026-05-07 20:11 | 44.27504 | 15.88580 | 21065 ft | 358 kts | 180° |
| 2026-05-07 20:11 | 44.25026 | 15.88767 | 20609 ft | 355 kts | 180° |
| 2026-05-07 20:11 | 44.22564 | 15.88952 | 20147 ft | 354 kts | 180° |
| 2026-05-07 20:12 | 44.20112 | 15.89135 | 19690 ft | 352 kts | 180° |
| 2026-05-07 20:12 | 44.17677 | 15.89318 | 19232 ft | 350 kts | 179° |
| 2026-05-07 20:12 | 44.15256 | 15.89500 | 18786 ft | 348 kts | 179° |
| 2026-05-07 20:12 | 44.12842 | 15.89680 | 18333 ft | 346 kts | 179° |
| 2026-05-07 20:13 | 44.10444 | 15.89861 | 17895 ft | 344 kts | 179° |
| 2026-05-07 20:13 | 44.08061 | 15.90039 | 17457 ft | 342 kts | 179° |
| 2026-05-07 20:13 | 44.05689 | 15.90215 | 17023 ft | 340 kts | 179° |
| 2026-05-07 20:13 | 44.03332 | 15.90392 | 16591 ft | 339 kts | 179° |
| 2026-05-07 20:14 | 44.00984 | 15.90566 | 16162 ft | 337 kts | 179° |
| 2026-05-07 20:14 | 43.98649 | 15.90737 | 15748 ft | 335 kts | 179° |
| 2026-05-07 20:14 | 43.96326 | 15.90906 | 15337 ft | 333 kts | 179° |
| 2026-05-07 20:14 | 43.94018 | 15.91075 | 14908 ft | 331 kts | 179° |
| 2026-05-07 20:15 | 43.91721 | 15.91243 | 14487 ft | 330 kts | 179° |
| 2026-05-07 20:15 | 43.89432 | 15.91413 | 14070 ft | 328 kts | 179° |
| 2026-05-07 20:15 | 43.87160 | 15.91584 | 13660 ft | 326 kts | 179° |
| 2026-05-07 20:15 | 43.84899 | 15.91755 | 13242 ft | 324 kts | 179° |
| 2026-05-07 20:16 | 43.82652 | 15.91925 | 12822 ft | 323 kts | 179° |
| 2026-05-07 20:16 | 43.80415 | 15.92089 | 12396 ft | 321 kts | 179° |
| 2026-05-07 20:16 | 43.78192 | 15.92249 | 11970 ft | 319 kts | 179° |
| 2026-05-07 20:16 | 43.75984 | 15.92407 | 11556 ft | 317 kts | 179° |
| 2026-05-07 20:17 | 43.73789 | 15.92561 | 11141 ft | 315 kts | 178° |
| 2026-05-07 20:17 | 43.71611 | 15.92717 | 10709 ft | 313 kts | 178° |
| 2026-05-07 20:17 | 43.69438 | 15.92877 | 10278 ft | 311 kts | 178° |
| 2026-05-07 20:17 | 43.67302 | 15.93036 | 10066 ft | 302 kts | 178° |
| 2026-05-07 20:18 | 43.65237 | 15.93189 | 9910 ft | 292 kts | 178° |
| 2026-05-07 20:18 | 43.63225 | 15.93339 | 9503 ft | 290 kts | 178° |
| 2026-05-07 20:18 | 43.61203 | 15.93488 | 9130 ft | 288 kts | 178° |
| 2026-05-07 20:18 | 43.59213 | 15.93636 | 8691 ft | 283 kts | 178° |
| 2026-05-07 20:19 | 43.57254 | 15.93780 | 7990 ft | 281 kts | 178° |
| 2026-05-07 20:19 | 43.55297 | 15.93920 | 7458 ft | 281 kts | 178° |
| 2026-05-07 20:19 | 43.53352 | 15.94062 | 7056 ft | 279 kts | 177° |
| 2026-05-07 20:19 | 43.51420 | 15.94203 | 6646 ft | 277 kts | 177° |
| 2026-05-07 20:20 | 43.49519 | 15.94569 | 6228 ft | 276 kts | 165° |
| 2026-05-07 20:20 | 43.47728 | 15.95603 | 5490 ft | 284 kts | 149° |
| 2026-05-07 20:20 | 43.46171 | 15.97202 | 5023 ft | 271 kts | 142° |
| 2026-05-07 20:20 | 43.44749 | 15.98729 | 4864 ft | 250 kts | 142° |
| 2026-05-07 20:21 | 43.43402 | 16.00151 | 4740 ft | 238 kts | 143° |
| 2026-05-07 20:21 | 43.42117 | 16.01501 | 4631 ft | 227 kts | 143° |
| 2026-05-07 20:21 | 43.40947 | 16.02878 | 4503 ft | 218 kts | 128° |
| 2026-05-07 20:21 | 43.40459 | 16.04813 | 4178 ft | 218 kts | 87° |
| 2026-05-07 20:22 | 43.40970 | 16.06725 | 3942 ft | 215 kts | 55° |
| 2026-05-07 20:22 | 43.41882 | 16.08350 | 3669 ft | 214 kts | 52° |
| 2026-05-07 20:22 | 43.42801 | 16.09949 | 3403 ft | 211 kts | 53° |
| 2026-05-07 20:22 | 43.43684 | 16.11511 | 3124 ft | 205 kts | 52° |
| 2026-05-07 20:23 | 43.44542 | 16.13041 | 2839 ft | 199 kts | 53° |
| 2026-05-07 20:23 | 43.45374 | 16.14529 | 2584 ft | 193 kts | 53° |
| 2026-05-07 20:23 | 43.46181 | 16.15974 | 2331 ft | 188 kts | 53° |
| 2026-05-07 20:23 | 43.46951 | 16.17351 | 2090 ft | 173 kts | 53° |
| 2026-05-07 20:24 | 43.47640 | 16.18584 | 1877 ft | 154 kts | 52° |
| 2026-05-07 20:24 | 43.48269 | 16.19709 | 1674 ft | 144 kts | 52° |
| 2026-05-07 20:24 | 43.48878 | 16.20776 | 1456 ft | 140 kts | 51° |
| 2026-05-07 20:24 | 43.49474 | 16.21829 | 1291 ft | 138 kts | 52° |
| 2026-05-07 20:25 | 43.50058 | 16.22871 | 1098 ft | 137 kts | 51° |
| 2026-05-07 20:25 | 43.50635 | 16.23915 | 932 ft | 137 kts | 51° |
| 2026-05-07 20:25 | 43.51213 | 16.24952 | 731 ft | 136 kts | 51° |
| 2026-05-07 20:25 | 43.51789 | 16.25990 | 561 ft | 137 kts | 51° |
| 2026-05-07 20:26 | 43.52362 | 16.27033 | 372 ft | 136 kts | 51° |
| 2026-05-07 20:26 | 43.52937 | 16.28066 | 206 ft | 136 kts | 51° |
| 2026-05-07 20:26 | 43.53500 | 16.29081 | 83 ft | 122 kts | 53° |
| 2026-05-07 20:26 | 43.53843 | 16.29702 | 71 ft | 38 kts | 52° |
| 2026-05-07 20:27 | 43.53984 | 16.29959 | 67 ft | 24 kts | 53° |
| 2026-05-07 20:27 | 43.54043 | 16.30104 | 64 ft | 9 kts | 135° |
| 2026-05-07 20:27 | 43.53985 | 16.30089 | 65 ft | 7 kts | 197° |
| 2026-05-07 20:27 | 43.53950 | 16.30075 | 67 ft | 6 kts | 196° |
| 2026-05-07 20:28 | 43.53905 | 16.30050 | 66 ft | 6 kts | 214° |
| 2026-05-07 20:28 | 43.53878 | 16.30011 | 68 ft | 5 kts | 231° |
| 2026-05-07 20:28 | 43.53852 | 16.29962 | 68 ft | 7 kts | 233° |
| 2026-05-07 20:28 | 43.53826 | 16.29914 | 68 ft | 6 kts | 233° |
| 2026-05-07 20:29 | 43.53793 | 16.29853 | 68 ft | 9 kts | 233° |
| 2026-05-07 20:29 | 43.53755 | 16.29786 | 68 ft | 8 kts | 232° |
| 2026-05-07 20:29 | 43.53722 | 16.29736 | 68 ft | 4 kts | 195° |
| 2026-05-07 20:29 | 43.53712 | 16.29758 | 61 ft | 2 kts | 112° |
| 2026-05-07 20:30 | 43.53706 | 16.29777 | 68 ft | 2 kts | 114° |
| 2026-05-07 20:30 | 43.53701 | 16.29791 | 68 ft | 1 kts | 114° |
| 2026-05-07 20:30 | 43.53698 | 16.29801 | 68 ft | 1 kts | 114° |
| 2026-05-07 20:30 | 43.53696 | 16.29806 | 68 ft | 0 kts | 114° |
| 2026-05-07 20:31 | 43.53695 | 16.29808 | 68 ft | 0 kts | 114° |